Time;durP1;ratioP1;P1;durP2;ratioP2;P2;SDS_P1;SDS_P2;PMS_P1;PMS_P2;Temp;Humidity;BMP_temperature;BMP_pressure;BME280_temperature;BME280_humidity;BME280_pressure;Samples;Min_cycle;Max_cycle;Signal;HPM_P1;HPM_P2
2023/10/04 00:01:29;;;;;;;;;;;16.20;84.70;;;;;;4961065;28;20618;-77
2023/10/04 00:03:56;;;;;;;;;;;16.10;84.60;;;;;;4961041;28;19990;-77
2023/10/04 00:06:22;;;;;;;;;;;16.10;84.60;;;;;;4961395;28;19988;-77
2023/10/04 00:08:49;;;;;;;;;;;16.10;84.60;;;;;;4956190;28;20517;-77
2023/10/04 00:11:15;;;;;;;;;;;16.10;84.70;;;;;;4960298;28;20672;-78
2023/10/04 00:13:43;;;;;;;;;;;16.00;84.60;;;;;;4959179;28;20004;-77
2023/10/04 00:16:10;;;;;;;;;;;16.00;84.60;;;;;;4956146;28;20012;-77
2023/10/04 00:18:38;;;;;;;;;;;16.00;84.60;;;;;;4961672;28;19997;-78
2023/10/04 00:21:10;;;;;;;;;;;16.00;84.70;;;;;;4960480;28;19996;-77
2023/10/04 00:23:37;;;;;;;;;;;16.00;84.60;;;;;;4957101;28;19982;-78
2023/10/04 00:26:05;;;;;;;;;;;15.90;84.60;;;;;;4960445;28;20431;-77
2023/10/04 00:28:32;;;;;;;;;;;15.90;84.60;;;;;;4960276;28;20084;-77
2023/10/04 00:30:58;;;;;;;;;;;15.90;84.60;;;;;;4964198;28;20007;-77
2023/10/04 00:33:26;;;;;;;;;;;15.90;84.70;;;;;;4959847;28;20933;-78
2023/10/04 00:35:54;;;;;;;;;;;15.90;84.70;;;;;;4963348;28;19977;-77
2023/10/04 00:38:22;;;;;;;;;;;15.90;84.70;;;;;;4957959;28;20049;-77
2023/10/04 00:40:50;;;;;;;;;;;15.80;84.70;;;;;;4964822;28;19994;-77
2023/10/04 00:43:19;;;;;;;;;;;15.80;84.70;;;;;;4960478;28;20482;-77
2023/10/04 00:45:48;;;;;;;;;;;15.80;84.80;;;;;;4960418;28;20001;-77
2023/10/04 00:48:18;;;;;;;;;;;15.80;84.80;;;;;;4956800;28;20023;-77
2023/10/04 00:50:45;;;;;;;;;;;15.80;85.50;;;;;;4962461;28;20056;-77
2023/10/04 00:53:14;;;;;;;;;;;15.80;84.80;;;;;;4958065;28;19993;-78
2023/10/04 00:55:43;;;;;;;;;;;15.80;84.80;;;;;;4957299;28;19988;-78
2023/10/04 00:58:11;;;;;;;;;;;15.80;84.90;;;;;;4964437;28;20004;-78
2023/10/04 01:00:38;;;;;;;;;;;15.70;84.80;;;;;;4959886;28;20040;-78
2023/10/04 01:03:07;;;;;;;;;;;15.70;84.80;;;;;;4961194;28;20038;-78
2023/10/04 01:05:38;;;;;;;;;;;15.70;84.90;;;;;;4951438;28;22466;-78
2023/10/04 01:08:06;;;;;;;;;;;15.60;84.90;;;;;;4960844;28;20047;-78
2023/10/04 01:10:37;;;;;;;;;;;15.70;84.90;;;;;;4969427;28;19981;-78
2023/10/04 01:13:05;;;;;;;;;;;15.60;84.80;;;;;;4958445;28;19982;-77
2023/10/04 01:15:33;;;;;;;;;;;15.60;84.90;;;;;;4960523;28;20004;-77
2023/10/04 01:18:00;;;;;;;;;;;15.60;84.90;;;;;;4962105;28;20008;-77
2023/10/04 01:20:30;;;;;;;;;;;15.60;85.00;;;;;;4960608;28;20100;-78
2023/10/04 01:23:00;;;;;;;;;;;15.60;85.00;;;;;;4956066;28;20012;-77
2023/10/04 01:25:28;;;;;;;;;;;15.60;85.00;;;;;;4962882;28;19990;-78
2023/10/04 01:27:54;;;;;;;;;;;15.50;84.90;;;;;;4956136;28;20001;-78
2023/10/04 01:30:22;;;;;;;;;;;15.50;84.90;;;;;;4958591;28;20855;-77
2023/10/04 01:32:50;;;;;;;;;;;15.50;85.00;;;;;;4958313;28;19985;-76
2023/10/04 01:35:18;;;;;;;;;;;15.50;85.00;;;;;;4973366;28;20035;-77
2023/10/04 01:37:45;;;;;;;;;;;15.50;85.00;;;;;;4956720;28;20489;-77
2023/10/04 01:40:13;;;;;;;;;;;15.50;85.10;;;;;;4958055;28;20435;-78
2023/10/04 01:42:41;;;;;;;;;;;15.40;85.10;;;;;;4958692;28;19992;-77
2023/10/04 01:45:11;;;;;;;;;;;15.50;86.00;;;;;;4955472;28;20095;-79
2023/10/04 01:47:38;;;;;;;;;;;15.40;85.20;;;;;;4958451;28;20096;-78
2023/10/04 01:50:06;;;;;;;;;;;15.40;85.20;;;;;;4956647;28;20039;-78
2023/10/04 01:52:33;;;;;;;;;;;15.50;85.30;;;;;;4957644;28;20572;-77
2023/10/04 01:55:00;;;;;;;;;;;15.40;85.20;;;;;;4956250;28;19981;-77
2023/10/04 01:57:29;;;;;;;;;;;15.40;85.20;;;;;;4958605;28;20004;-77
2023/10/04 01:59:55;;;;;;;;;;;15.30;85.20;;;;;;4971710;28;19977;-77
2023/10/04 02:02:22;;;;;;;;;;;15.40;85.30;;;;;;4959831;28;19993;-77
2023/10/04 02:04:53;;;;;;;;;;;15.30;85.20;;;;;;4953646;28;20226;-77
2023/10/04 02:07:22;;;;;;;;;;;15.30;85.20;;;;;;4953528;28;20539;-78
2023/10/04 02:09:48;;;;;;;;;;;15.30;85.30;;;;;;4950539;28;20000;-77
2023/10/04 02:12:18;;;;;;;;;;;15.30;85.40;;;;;;4950182;28;20614;-77
2023/10/04 02:14:47;;;;;;;;;;;15.30;85.40;;;;;;4975052;28;20490;-78
2023/10/04 02:17:16;;;;;;;;;;;15.30;85.40;;;;;;4954865;28;20004;-77
2023/10/04 02:19:43;;;;;;;;;;;15.20;85.40;;;;;;4969905;28;20000;-77
2023/10/04 02:22:12;;;;;;;;;;;15.20;85.40;;;;;;4955918;28;19984;-77
2023/10/04 02:24:39;;;;;;;;;;;15.20;85.40;;;;;;4953724;28;20479;-78
2023/10/04 02:27:06;;;;;;;;;;;15.20;85.40;;;;;;4954774;28;20119;-77
2023/10/04 02:29:34;;;;;;;;;;;15.20;85.40;;;;;;4955029;28;20095;-77
2023/10/04 02:32:06;;;;;;;;;;;15.20;85.40;;;;;;4951196;28;20423;-77
2023/10/04 02:34:34;;;;;;;;;;;15.20;85.50;;;;;;4955500;28;20016;-77
2023/10/04 02:37:01;;;;;;;;;;;15.20;85.50;;;;;;4958331;28;20073;-77
2023/10/04 02:39:28;;;;;;;;;;;15.20;85.60;;;;;;4954016;28;20021;-77
2023/10/04 02:41:54;;;;;;;;;;;15.10;85.50;;;;;;4953664;28;20740;-77
2023/10/04 02:44:21;;;;;;;;;;;15.10;85.50;;;;;;4956380;28;19985;-77
2023/10/04 02:46:48;;;;;;;;;;;15.10;85.50;;;;;;4950445;28;20008;-77
2023/10/04 02:49:16;;;;;;;;;;;15.10;85.50;;;;;;4957233;28;20008;-77
2023/10/04 02:51:45;;;;;;;;;;;15.10;85.60;;;;;;4955448;28;19992;-77
2023/10/04 02:54:12;;;;;;;;;;;15.10;85.50;;;;;;4954631;28;19985;-77
2023/10/04 02:56:45;;;;;;;;;;;15.00;85.50;;;;;;4958167;28;20417;-77
2023/10/04 02:59:16;;;;;;;;;;;15.00;85.50;;;;;;4960907;28;20090;-77
2023/10/04 03:01:42;;;;;;;;;;;15.00;85.50;;;;;;4965743;28;19997;-77
2023/10/04 03:04:15;;;;;;;;;;;15.00;85.60;;;;;;4961835;28;20094;-76
2023/10/04 03:06:45;;;;;;;;;;;15.00;85.60;;;;;;4959168;28;20003;-77
2023/10/04 03:09:13;;;;;;;;;;;14.90;85.60;;;;;;4963698;28;20000;-77
2023/10/04 03:11:42;;;;;;;;;;;14.90;85.60;;;;;;4960169;28;20514;-78
2023/10/04 03:14:11;;;;;;;;;;;14.90;85.70;;;;;;4962940;28;19985;-77
2023/10/04 03:16:40;;;;;;;;;;;14.90;85.70;;;;;;4963217;28;20474;-77
2023/10/04 03:19:07;;;;;;;;;;;14.90;85.70;;;;;;4964659;28;20478;-77
2023/10/04 03:21:34;;;;;;;;;;;14.90;85.70;;;;;;4962082;28;19977;-78
2023/10/04 03:24:06;;;;;;;;;;;14.90;85.80;;;;;;4963751;28;19981;-77
2023/10/04 03:26:33;;;;;;;;;;;14.80;85.80;;;;;;4959490;28;19981;-77
2023/10/04 03:29:00;;;;;;;;;;;14.80;85.80;;;;;;4962233;28;20000;-77
2023/10/04 03:31:27;;;;;;;;;;;14.80;85.90;;;;;;4948866;28;20013;-77
2023/10/04 03:33:55;;;;;;;;;;;14.70;85.80;;;;;;4963276;28;20584;-77
2023/10/04 03:36:25;;;;;;;;;;;14.80;85.90;;;;;;4969049;28;20421;-77
2023/10/04 03:38:51;;;;;;;;;;;14.80;86.00;;;;;;4962093;28;20109;-77
2023/10/04 03:41:20;;;;;;;;;;;14.80;86.00;;;;;;4958139;28;19985;-77
2023/10/04 03:43:47;;;;;;;;;;;14.70;86.00;;;;;;4959051;28;20028;-77
2023/10/04 03:46:18;;;;;;;;;;;14.70;86.00;;;;;;4958765;28;20011;-77
2023/10/04 03:48:45;;;;;;;;;;;14.70;86.00;;;;;;4961293;28;19997;-77
2023/10/04 03:51:13;;;;;;;;;;;14.60;86.00;;;;;;4962181;28;19998;-77
2023/10/04 03:53:41;;;;;;;;;;;14.60;86.10;;;;;;4961944;28;19993;-77
2023/10/04 03:56:10;;;;;;;;;;;14.60;86.00;;;;;;4961009;28;20400;-77
2023/10/04 03:58:39;;;;;;;;;;;14.60;86.00;;;;;;4962805;28;20099;-77
2023/10/04 04:01:07;;;;;;;;;;;14.60;86.10;;;;;;4957412;28;20002;-77
2023/10/04 04:03:34;;;;;;;;;;;14.60;86.10;;;;;;4964252;28;19986;-77
2023/10/04 04:06:01;;;;;;;;;;;14.50;86.00;;;;;;4975285;28;19987;-77
2023/10/04 04:08:28;;;;;;;;;;;14.50;86.00;;;;;;4967368;28;19997;-77
2023/10/04 04:10:55;;;;;;;;;;;14.50;86.10;;;;;;4962390;28;20455;-77
2023/10/04 04:13:23;;;;;;;;;;;14.50;86.20;;;;;;4961633;28;19992;-78
2023/10/04 04:15:52;;;;;;;;;;;14.50;86.30;;;;;;4973064;28;20001;-77
2023/10/04 04:18:20;;;;;;;;;;;14.50;86.30;;;;;;4957399;28;20522;-77
2023/10/04 04:20:47;;;;;;;;;;;14.50;86.30;;;;;;4962893;28;19981;-77
2023/10/04 04:23:15;;;;;;;;;;;14.50;86.40;;;;;;4959230;28;20006;-77
2023/10/04 04:25:43;;;;;;;;;;;14.50;86.50;;;;;;4966444;28;19981;-77
2023/10/04 04:28:12;;;;;;;;;;;14.50;86.50;;;;;;4965141;28;20387;-77
2023/10/04 04:30:39;;;;;;;;;;;14.40;86.40;;;;;;4960953;28;20005;-77
2023/10/04 04:33:07;;;;;;;;;;;14.40;86.40;;;;;;4960571;28;19992;-77
2023/10/04 04:35:47;;;;;;;;;;;14.40;86.50;;;;;;4956158;28;20013;-77
2023/10/04 04:38:16;;;;;;;;;;;14.40;86.50;;;;;;4961927;28;20386;-78
2023/10/04 04:40:46;;;;;;;;;;;14.40;86.50;;;;;;4956082;28;20031;-77
2023/10/04 04:43:26;;;;;;;;;;;14.40;86.50;;;;;;4959324;28;19988;-78
2023/10/04 04:45:54;;;;;;;;;;;14.40;86.50;;;;;;4957090;28;20007;-77
2023/10/04 04:48:23;;;;;;;;;;;14.30;86.40;;;;;;4961957;28;20024;-77
2023/10/04 04:50:51;;;;;;;;;;;14.30;86.40;;;;;;4956858;28;19985;-77
2023/10/04 04:53:20;;;;;;;;;;;14.30;86.40;;;;;;4965521;28;20374;-77
2023/10/04 04:55:47;;;;;;;;;;;14.30;86.40;;;;;;4958222;28;20020;-77
2023/10/04 04:58:14;;;;;;;;;;;14.30;86.50;;;;;;4958923;28;20024;-77
2023/10/04 05:00:42;;;;;;;;;;;14.30;86.40;;;;;;4956745;28;20028;-77
2023/10/04 05:03:09;;;;;;;;;;;14.30;86.40;;;;;;4971945;28;19977;-77
2023/10/04 05:05:37;;;;;;;;;;;14.30;86.50;;;;;;4962566;28;21171;-77
2023/10/04 05:08:05;;;;;;;;;;;14.20;86.40;;;;;;4965464;28;20095;-76
2023/10/04 05:10:37;;;;;;;;;;;14.20;86.40;;;;;;4958100;28;19993;-77
2023/10/04 05:13:04;;;;;;;;;;;14.20;86.40;;;;;;4959210;28;19978;-77
2023/10/04 05:15:33;;;;;;;;;;;14.20;86.40;;;;;;4959910;28;20047;-77
2023/10/04 05:18:02;;;;;;;;;;;14.20;86.40;;;;;;4953824;28;21156;-77
2023/10/04 05:20:31;;;;;;;;;;;14.20;86.40;;;;;;4958569;28;19981;-77
2023/10/04 05:22:59;;;;;;;;;;;14.20;86.40;;;;;;4958864;28;20363;-78
2023/10/04 05:25:27;;;;;;;;;;;14.10;86.30;;;;;;4959106;28;19981;-77
2023/10/04 05:27:54;;;;;;;;;;;14.10;86.40;;;;;;4973756;28;20008;-77
2023/10/04 05:30:21;;;;;;;;;;;14.10;86.40;;;;;;4958546;28;19989;-77
2023/10/04 05:32:47;;;;;;;;;;;14.10;86.40;;;;;;4957642;28;20016;-77
2023/10/04 05:35:15;;;;;;;;;;;14.10;86.40;;;;;;4959596;28;19977;-77
2023/10/04 05:37:41;;;;;;;;;;;14.10;86.50;;;;;;4966943;28;19997;-79
2023/10/04 05:40:16;;;;;;;;;;;14.10;86.40;;;;;;4958059;28;19991;-78
2023/10/04 05:42:44;;;;;;;;;;;14.00;86.40;;;;;;4959649;28;20076;-77
2023/10/04 05:45:11;;;;;;;;;;;14.00;86.40;;;;;;4960612;28;19981;-77
2023/10/04 05:47:38;;;;;;;;;;;14.00;86.50;;;;;;4957191;28;20075;-78
2023/10/04 05:50:06;;;;;;;;;;;14.00;86.50;;;;;;4960431;28;19985;-78
2023/10/04 05:52:33;;;;;;;;;;;14.00;86.50;;;;;;4958838;28;20495;-77
2023/10/04 05:55:01;;;;;;;;;;;14.00;86.50;;;;;;4959655;28;19980;-77
2023/10/04 05:57:29;;;;;;;;;;;14.00;86.50;;;;;;4956365;28;20008;-77
2023/10/04 05:59:56;;;;;;;;;;;14.00;86.50;;;;;;4955566;28;20088;-77
2023/10/04 06:02:23;;;;;;;;;;;14.00;86.50;;;;;;4963892;28;20173;-78
2023/10/04 06:04:50;;;;;;;;;;;13.90;86.50;;;;;;4960130;28;19981;-77
2023/10/04 06:07:17;;;;;;;;;;;14.00;86.60;;;;;;4955607;28;20028;-77
2023/10/04 06:09:45;;;;;;;;;;;14.00;86.60;;;;;;4958974;28;19981;-78
2023/10/04 06:12:12;;;;;;;;;;;13.90;86.60;;;;;;4957775;28;19985;-78
2023/10/04 06:14:40;;;;;;;;;;;13.90;86.60;;;;;;4957153;28;20104;-78
2023/10/04 06:17:07;;;;;;;;;;;13.90;86.60;;;;;;4956783;28;20534;-78
2023/10/04 06:19:34;;;;;;;;;;;13.90;86.70;;;;;;4961536;28;20091;-77
2023/10/04 06:22:00;;;;;;;;;;;13.90;86.70;;;;;;4959704;28;19985;-78
2023/10/04 06:24:27;;;;;;;;;;;13.90;86.80;;;;;;4959078;28;19989;-77
2023/10/04 06:26:54;;;;;;;;;;;13.90;86.80;;;;;;4957170;28;19992;-77
2023/10/04 06:29:20;;;;;;;;;;;13.90;86.80;;;;;;4961443;28;20007;-77
2023/10/04 06:31:49;;;;;;;;;;;13.90;86.80;;;;;;4956956;28;20080;-77
2023/10/04 06:34:15;;;;;;;;;;;13.90;86.80;;;;;;4956522;28;20068;-77
2023/10/04 06:36:44;;;;;;;;;;;13.80;86.80;;;;;;4957757;28;19981;-77
2023/10/04 06:39:12;;;;;;;;;;;13.80;86.80;;;;;;4956712;28;20087;-77
2023/10/04 06:41:38;;;;;;;;;;;13.90;87.00;;;;;;4963231;28;19993;-77
2023/10/04 06:44:07;;;;;;;;;;;13.90;86.90;;;;;;4961020;28;19981;-76
2023/10/04 06:46:35;;;;;;;;;;;13.80;86.90;;;;;;4959905;28;20015;-76
2023/10/04 06:49:05;;;;;;;;;;;13.80;86.90;;;;;;4958329;28;20691;-77
2023/10/04 06:51:31;;;;;;;;;;;13.80;87.00;;;;;;4967288;28;19985;-76
2023/10/04 06:53:58;;;;;;;;;;;13.80;87.10;;;;;;4963046;28;19990;-77
2023/10/04 06:56:25;;;;;;;;;;;13.80;87.10;;;;;;4976636;28;19975;-77
2023/10/04 06:58:51;;;;;;;;;;;13.80;87.10;;;;;;4958039;28;20112;-77
2023/10/04 07:01:18;;;;;;;;;;;13.80;87.10;;;;;;4959617;28;20008;-77
2023/10/04 07:03:44;;;;;;;;;;;13.80;87.20;;;;;;4962665;28;20765;-77
2023/10/04 07:06:12;;;;;;;;;;;13.80;87.20;;;;;;4957953;28;19991;-77
2023/10/04 07:08:39;;;;;;;;;;;13.70;87.20;;;;;;4968601;28;19993;-77
2023/10/04 07:11:06;;;;;;;;;;;13.80;87.20;;;;;;4975250;28;20339;-76
2023/10/04 07:13:32;;;;;;;;;;;13.70;87.20;;;;;;4962903;28;19981;-77
2023/10/04 07:15:59;;;;;;;;;;;13.70;87.20;;;;;;4966167;28;20119;-77
2023/10/04 07:18:25;;;;;;;;;;;13.70;87.20;;;;;;4973637;28;20419;-77
2023/10/04 07:20:52;;;;;;;;;;;13.70;87.20;;;;;;4970728;28;19982;-77
2023/10/04 07:23:20;;;;;;;;;;;13.70;87.30;;;;;;4967007;28;19999;-78
2023/10/04 07:25:47;;;;;;;;;;;13.70;87.40;;;;;;4965117;28;19978;-77
2023/10/04 07:28:13;;;;;;;;;;;13.80;87.50;;;;;;4957829;28;19999;-76
2023/10/04 07:30:40;;;;;;;;;;;13.70;87.50;;;;;;4961907;28;20370;-77
2023/10/04 07:33:08;;;;;;;;;;;13.70;87.50;;;;;;4957407;28;19991;-77
2023/10/04 07:35:35;;;;;;;;;;;13.70;87.50;;;;;;4965096;28;20024;-76
2023/10/04 07:38:04;;;;;;;;;;;13.70;87.60;;;;;;4963177;28;20004;-77
2023/10/04 07:40:32;;;;;;;;;;;13.70;87.60;;;;;;4967890;28;20003;-77
2023/10/04 07:42:59;;;;;;;;;;;13.70;87.70;;;;;;4960644;28;19985;-77
2023/10/04 07:45:28;;;;;;;;;;;13.80;87.70;;;;;;4961940;28;20075;-77
2023/10/04 07:47:56;;;;;;;;;;;13.70;87.70;;;;;;4959350;28;20001;-77
2023/10/04 07:50:24;;;;;;;;;;;13.70;87.80;;;;;;4954882;28;20016;-76
2023/10/04 07:52:51;;;;;;;;;;;13.70;87.80;;;;;;4973859;28;19985;-77
2023/10/04 07:55:18;;;;;;;;;;;13.70;87.80;;;;;;4959806;28;20004;-76
2023/10/04 07:57:47;;;;;;;;;;;13.70;87.90;;;;;;4962770;28;20000;-77
2023/10/04 08:00:14;;;;;;;;;;;13.70;87.80;;;;;;4961287;28;20008;-77
2023/10/04 08:02:46;;;;;;;;;;;13.70;87.80;;;;;;4959796;28;19981;-77
2023/10/04 08:05:13;;;;;;;;;;;13.80;87.80;;;;;;4955729;28;20076;-76
2023/10/04 08:07:39;;;;;;;;;;;13.70;87.70;;;;;;4964808;28;20467;-77
2023/10/04 08:10:07;;;;;;;;;;;13.80;87.80;;;;;;4959001;28;20258;-77
2023/10/04 08:12:33;;;;;;;;;;;13.80;87.80;;;;;;4969440;28;19988;-77
2023/10/04 08:15:03;;;;;;;;;;;13.80;87.80;;;;;;4958219;28;20038;-76
2023/10/04 08:17:30;;;;;;;;;;;13.80;87.80;;;;;;4958783;28;20080;-78
2023/10/04 08:19:58;;;;;;;;;;;13.80;87.90;;;;;;4956603;28;20165;-77
2023/10/04 08:22:25;;;;;;;;;;;13.80;87.80;;;;;;4956366;28;20417;-77
2023/10/04 08:24:53;;;;;;;;;;;13.80;87.70;;;;;;4958677;28;19981;-76
2023/10/04 08:27:20;;;;;;;;;;;13.90;87.80;;;;;;4970903;28;20047;-77
2023/10/04 08:29:46;;;;;;;;;;;13.90;87.70;;;;;;4957939;28;19978;-78
2023/10/04 08:32:14;;;;;;;;;;;14.00;87.70;;;;;;4968492;28;19999;-77
2023/10/04 08:34:41;;;;;;;;;;;14.00;87.70;;;;;;4956210;28;19981;-77
2023/10/04 08:37:08;;;;;;;;;;;13.90;87.50;;;;;;4966588;28;20499;-77
2023/10/04 08:39:36;;;;;;;;;;;14.00;87.50;;;;;;4973953;28;20036;-77
2023/10/04 08:42:03;;;;;;;;;;;14.00;87.40;;;;;;4960509;28;20027;-77
2023/10/04 08:44:31;;;;;;;;;;;14.00;87.40;;;;;;4968475;28;19984;-79
2023/10/04 08:47:00;;;;;;;;;;;14.00;87.40;;;;;;4963169;28;20387;-77
2023/10/04 08:49:31;;;;;;;;;;;14.00;87.40;;;;;;4956764;28;19988;-79
2023/10/04 08:52:05;;;;;;;;;;;14.10;87.40;;;;;;4972426;28;19989;-78
2023/10/04 08:54:32;;;;;;;;;;;14.00;87.30;;;;;;4960658;28;20326;-77
2023/10/04 08:57:04;;;;;;;;;;;14.10;87.20;;;;;;4958675;28;20007;-77
2023/10/04 08:59:31;;;;;;;;;;;14.10;87.30;;;;;;4960569;28;20092;-78
2023/10/04 09:01:58;;;;;;;;;;;14.10;87.20;;;;;;4959029;28;20008;-77
2023/10/04 09:04:25;;;;;;;;;;;14.10;87.20;;;;;;4960976;28;19992;-78
2023/10/04 09:06:53;;;;;;;;;;;14.20;87.20;;;;;;4962324;28;19985;-78
2023/10/04 09:09:20;;;;;;;;;;;14.20;87.00;;;;;;4958396;28;19985;-76
2023/10/04 09:11:47;;;;;;;;;;;14.20;86.90;;;;;;4963233;28;20679;-77
2023/10/04 09:14:15;;;;;;;;;;;14.30;86.90;;;;;;4962014;28;19993;-77
2023/10/04 09:16:42;;;;;;;;;;;14.30;86.80;;;;;;4961705;28;20088;-77
2023/10/04 09:19:13;;;;;;;;;;;14.40;86.60;;;;;;4958624;28;20005;-77
2023/10/04 09:21:41;;;;;;;;;;;14.50;86.60;;;;;;4956911;28;20066;-77
2023/10/04 09:24:10;;;;;;;;;;;14.60;86.30;;;;;;4960896;28;19992;-77
2023/10/04 09:26:37;;;;;;;;;;;14.60;85.90;;;;;;4960727;28;19981;-78
2023/10/04 09:29:04;;;;;;;;;;;14.70;85.50;;;;;;4961255;28;19997;-77
2023/10/04 09:31:31;;;;;;;;;;;14.70;85.20;;;;;;4974782;28;19995;-77
2023/10/04 09:34:13;;;;;;;;;;;14.80;85.00;;;;;;4970855;28;20385;-78
2023/10/04 09:36:40;;;;;;;;;;;14.90;84.80;;;;;;4960199;28;20004;-77
2023/10/04 09:39:10;;;;;;;;;;;14.90;84.40;;;;;;4955969;28;20001;-77
2023/10/04 09:41:40;;;;;;;;;;;15.00;84.40;;;;;;4957284;28;20383;-77
2023/10/04 09:44:18;;;;;;;;;;;15.00;84.00;;;;;;4961660;28;20025;-77
2023/10/04 09:46:52;;;;;;;;;;;15.00;84.10;;;;;;4956762;28;20459;-79
2023/10/04 09:49:19;;;;;;;;;;;15.10;83.90;;;;;;4959379;28;20028;-77
2023/10/04 09:51:46;;;;;;;;;;;15.10;83.80;;;;;;4956843;28;20024;-77
2023/10/04 09:54:16;;;;;;;;;;;15.10;84.10;;;;;;4956879;28;20487;-77
2023/10/04 09:56:44;;;;;;;;;;;15.20;83.60;;;;;;4959340;28;20511;-76
2023/10/04 09:59:11;;;;;;;;;;;15.20;83.60;;;;;;4971001;28;20004;-76
2023/10/04 10:01:38;;;;;;;;;;;15.20;83.40;;;;;;4951645;28;19997;-78
2023/10/04 10:04:08;;;;;;;;;;;15.30;83.30;;;;;;4956267;28;19978;-76
2023/10/04 10:06:40;;;;;;;;;;;15.30;83.40;;;;;;4960814;28;20466;-77
2023/10/04 10:09:08;;;;;;;;;;;15.30;82.90;;;;;;4957156;28;19997;-78
2023/10/04 10:11:36;;;;;;;;;;;15.40;82.70;;;;;;4955894;28;20036;-77
2023/10/04 10:14:04;;;;;;;;;;;15.50;82.80;;;;;;4960267;28;19981;-78
2023/10/04 10:16:32;;;;;;;;;;;15.60;82.60;;;;;;4954204;28;20084;-77
2023/10/04 10:18:59;;;;;;;;;;;15.60;82.40;;;;;;4954336;28;19993;-76
2023/10/04 10:21:40;;;;;;;;;;;15.70;81.50;;;;;;4953074;28;19994;-76
2023/10/04 10:24:15;;;;;;;;;;;15.80;81.60;;;;;;4955467;28;19978;-76
2023/10/04 10:26:43;;;;;;;;;;;15.80;81.60;;;;;;4949256;28;19981;-77
2023/10/04 10:29:21;;;;;;;;;;;15.90;81.60;;;;;;4954881;28;20004;-76
2023/10/04 10:31:53;;;;;;;;;;;15.90;80.90;;;;;;4954956;28;20006;-78
2023/10/04 10:34:20;;;;;;;;;;;16.00;80.60;;;;;;4970477;28;19977;-77
2023/10/04 10:36:52;;;;;;;;;;;16.10;80.10;;;;;;4957079;28;19977;-76
2023/10/04 10:39:19;;;;;;;;;;;16.10;79.80;;;;;;4958158;28;20596;-76
2023/10/04 10:41:57;;;;;;;;;;;16.20;79.80;;;;;;4957002;28;19984;-77
2023/10/04 10:44:30;;;;;;;;;;;16.20;79.90;;;;;;4962765;28;19981;-77
2023/10/04 10:46:58;;;;;;;;;;;16.20;79.80;;;;;;4956758;28;20020;-78
2023/10/04 10:49:41;;;;;;;;;;;16.20;79.50;;;;;;4958331;28;20353;-78
2023/10/04 10:52:09;;;;;;;;;;;16.30;79.40;;;;;;4959985;28;19987;-76
2023/10/04 10:54:36;;;;;;;;;;;16.30;79.30;;;;;;4958236;28;20102;-76
2023/10/04 10:57:05;;;;;;;;;;;16.30;78.90;;;;;;4951238;28;20063;-76
2023/10/04 10:59:32;;;;;;;;;;;16.40;78.50;;;;;;4948802;28;20440;-76
2023/10/04 11:01:59;;;;;;;;;;;16.40;78.60;;;;;;4951646;28;19997;-77
2023/10/04 11:04:26;;;;;;;;;;;16.50;78.60;;;;;;4955740;28;19996;-76
2023/10/04 11:06:52;;;;;;;;;;;16.50;78.30;;;;;;4954609;28;19981;-76
2023/10/04 11:09:20;;;;;;;;;;;16.60;76.80;;;;;;4958139;28;20025;-76
2023/10/04 11:11:47;;;;;;;;;;;16.70;77.10;;;;;;4968003;28;20725;-77
2023/10/04 11:14:16;;;;;;;;;;;16.70;76.30;;;;;;4976743;28;19982;-76
2023/10/04 11:16:42;;;;;;;;;;;16.80;76.10;;;;;;4955896;28;19993;-77
2023/10/04 11:19:09;;;;;;;;;;;17.00;75.20;;;;;;4957024;28;19997;-79
2023/10/04 11:21:36;;;;;;;;;;;17.00;75.80;;;;;;4956167;28;19997;-77
2023/10/04 11:24:05;;;;;;;;;;;17.10;75.60;;;;;;4952429;28;20737;-77
2023/10/04 11:26:32;;;;;;;;;;;17.10;75.90;;;;;;4956600;28;20087;-76
2023/10/04 11:28:59;;;;;;;;;;;17.10;75.80;;;;;;4960476;28;19997;-77
2023/10/04 11:31:27;;;;;;;;;;;17.20;75.80;;;;;;4953994;28;20000;-78
2023/10/04 11:33:55;;;;;;;;;;;17.30;75.20;;;;;;4961514;28;19981;-76
2023/10/04 11:36:22;;;;;;;;;;;17.30;74.50;;;;;;4962656;28;20467;-77
2023/10/04 11:38:49;;;;;;;;;;;17.40;74.70;;;;;;4968226;28;19997;-77
2023/10/04 11:41:16;;;;;;;;;;;17.50;74.40;;;;;;4958639;28;20927;-77
2023/10/04 11:43:44;;;;;;;;;;;17.50;73.80;;;;;;4955287;28;19981;-76
2023/10/04 11:46:11;;;;;;;;;;;17.60;74.00;;;;;;4959338;28;20477;-77
2023/10/04 11:48:39;;;;;;;;;;;17.60;73.70;;;;;;4958872;28;20762;-78
2023/10/04 11:51:06;;;;;;;;;;;17.70;74.00;;;;;;4963046;28;19991;-77
2023/10/04 11:53:33;;;;;;;;;;;17.70;73.00;;;;;;4966169;28;20084;-78
2023/10/04 11:56:01;;;;;;;;;;;17.80;73.10;;;;;;4960898;28;19977;-76
2023/10/04 11:58:30;;;;;;;;;;;17.90;73.70;;;;;;4959563;28;20091;-76
2023/10/04 12:01:04;;;;;;;;;;;17.90;74.10;;;;;;4961272;28;19997;-76
2023/10/04 12:03:32;;;;;;;;;;;18.00;73.70;;;;;;4964235;28;20042;-77
2023/10/04 12:06:00;;;;;;;;;;;18.00;72.10;;;;;;4961261;28;20772;-76
2023/10/04 12:08:28;;;;;;;;;;;18.00;71.00;;;;;;4964419;28;19993;-76
2023/10/04 12:10:55;;;;;;;;;;;18.10;72.10;;;;;;4960788;28;19977;-77
2023/10/04 12:13:22;;;;;;;;;;;18.10;71.50;;;;;;4969801;28;20456;-77
2023/10/04 12:15:49;;;;;;;;;;;18.20;71.60;;;;;;4957219;28;20016;-77
2023/10/04 12:18:16;;;;;;;;;;;18.30;72.00;;;;;;4957647;28;19993;-78
2023/10/04 12:20:44;;;;;;;;;;;18.20;71.90;;;;;;4970802;28;19997;-76
2023/10/04 12:23:12;;;;;;;;;;;18.30;71.50;;;;;;4961467;28;19984;-76
2023/10/04 12:25:42;;;;;;;;;;;18.30;72.60;;;;;;4961603;28;20657;-76
2023/10/04 12:28:08;;;;;;;;;;;18.30;72.40;;;;;;4964334;28;20000;-76
2023/10/04 12:30:35;;;;;;;;;;;18.30;72.20;;;;;;4959021;28;20005;-77
2023/10/04 12:33:02;;;;;;;;;;;18.30;71.60;;;;;;4957488;28;19985;-77
2023/10/04 12:35:29;;;;;;;;;;;18.20;72.30;;;;;;4960988;28;20552;-77
2023/10/04 12:37:56;;;;;;;;;;;18.20;72.00;;;;;;4959599;28;19997;-77
2023/10/04 12:40:24;;;;;;;;;;;18.20;72.90;;;;;;4961822;28;20001;-78
2023/10/04 12:42:52;;;;;;;;;;;18.20;72.70;;;;;;4957302;28;20672;-78
2023/10/04 12:45:18;;;;;;;;;;;18.10;72.90;;;;;;4962296;28;20506;-77
2023/10/04 12:47:46;;;;;;;;;;;18.10;72.80;;;;;;4958967;28;19993;-77
2023/10/04 12:50:14;;;;;;;;;;;18.10;73.00;;;;;;4959192;28;19982;-78
2023/10/04 12:52:41;;;;;;;;;;;18.10;72.30;;;;;;4963840;28;19991;-77
2023/10/04 12:55:08;;;;;;;;;;;18.00;72.30;;;;;;4961887;28;20068;-78
2023/10/04 12:57:36;;;;;;;;;;;18.00;71.90;;;;;;4959939;28;20028;-77
2023/10/04 13:00:13;;;;;;;;;;;18.00;73.00;;;;;;4962328;28;19977;-77
2023/10/04 13:02:40;;;;;;;;;;;18.00;73.80;;;;;;4964267;28;20379;-77
2023/10/04 13:05:07;;;;;;;;;;;18.00;74.00;;;;;;4963389;28;19981;-77
2023/10/04 13:07:34;;;;;;;;;;;18.00;73.00;;;;;;4959398;28;20581;-77
2023/10/04 13:10:00;;;;;;;;;;;18.00;72.70;;;;;;4956704;28;20396;-78
2023/10/04 13:12:27;;;;;;;;;;;18.00;72.40;;;;;;4957389;28;20490;-77
2023/10/04 13:14:55;;;;;;;;;;;18.00;73.60;;;;;;4961867;28;19981;-77
2023/10/04 13:17:22;;;;;;;;;;;18.10;73.00;;;;;;4961262;28;20024;-77
2023/10/04 13:19:48;;;;;;;;;;;18.10;71.30;;;;;;4959614;28;19985;-77
2023/10/04 13:22:15;;;;;;;;;;;18.10;70.90;;;;;;4956636;28;20001;-77
2023/10/04 13:24:42;;;;;;;;;;;18.20;70.50;;;;;;4958566;28;21348;-78
2023/10/04 13:27:08;;;;;;;;;;;18.20;70.40;;;;;;4959166;28;19988;-77
2023/10/04 13:29:35;;;;;;;;;;;18.30;71.60;;;;;;4959313;28;19989;-78
2023/10/04 13:32:03;;;;;;;;;;;18.30;69.80;;;;;;4953476;28;20005;-77
2023/10/04 13:34:30;;;;;;;;;;;18.40;70.40;;;;;;4961488;28;20027;-78
2023/10/04 13:36:56;;;;;;;;;;;18.40;70.50;;;;;;4975128;28;20159;-77
2023/10/04 13:39:24;;;;;;;;;;;18.40;69.40;;;;;;4976671;28;19984;-78
2023/10/04 13:41:50;;;;;;;;;;;18.40;68.70;;;;;;4960446;28;19997;-77
2023/10/04 13:44:18;;;;;;;;;;;18.40;69.60;;;;;;4955579;28;20016;-77
2023/10/04 13:46:45;;;;;;;;;;;18.50;69.70;;;;;;4959886;28;19992;-77
2023/10/04 13:49:14;;;;;;;;;;;18.50;70.70;;;;;;4955875;28;20059;-77
2023/10/04 13:51:41;;;;;;;;;;;18.60;70.60;;;;;;4957906;28;20518;-78
2023/10/04 13:54:08;;;;;;;;;;;18.60;70.00;;;;;;4980358;28;20604;-78
2023/10/04 13:56:35;;;;;;;;;;;18.60;70.30;;;;;;4961724;28;19981;-77
2023/10/04 13:59:02;;;;;;;;;;;18.60;70.40;;;;;;4955844;28;20070;-77
2023/10/04 14:01:30;;;;;;;;;;;18.60;69.20;;;;;;4957984;28;20676;-78
2023/10/04 14:03:58;;;;;;;;;;;18.60;68.70;;;;;;4959054;28;19985;-76
2023/10/04 14:06:26;;;;;;;;;;;18.60;68.70;;;;;;4958840;28;19986;-77
2023/10/04 14:08:52;;;;;;;;;;;18.60;69.70;;;;;;4958706;28;20008;-77
2023/10/04 14:11:19;;;;;;;;;;;18.70;68.70;;;;;;4965071;28;19981;-77
2023/10/04 14:13:49;;;;;;;;;;;18.70;68.40;;;;;;4974394;28;20561;-77
2023/10/04 14:16:16;;;;;;;;;;;18.70;69.00;;;;;;4961481;28;20001;-77
2023/10/04 14:18:43;;;;;;;;;;;18.70;69.60;;;;;;4958473;28;20001;-78
2023/10/04 14:21:10;;;;;;;;;;;18.70;68.10;;;;;;4960190;28;20051;-77